createdAt,value
2016-03-31T18:04:19.397Z,71.31
2016-03-31T18:05:19.430Z,71.31
2016-03-31T18:06:19.386Z,71.22
2016-03-31T18:07:19.358Z,71.19
2016-03-31T18:08:19.297Z,71.66
2016-03-31T18:09:19.253Z,71.09
2016-03-31T18:10:19.210Z,71.76
2016-03-31T18:11:19.165Z,71.66
2016-03-31T18:12:19.105Z,71.57
2016-03-31T18:13:19.061Z,71.86
2016-03-31T18:14:19.016Z,72.53
2016-03-31T18:15:18.973Z,72.81
2016-03-31T18:16:18.913Z,72.91
2016-03-31T18:17:18.885Z,73
2016-03-31T18:18:18.872Z,72.72
2016-03-31T18:19:18.797Z,73.39
2016-03-31T18:20:18.737Z,73.26
2016-03-31T18:21:18.693Z,73.26
2016-03-31T18:22:18.649Z,73.3
2016-03-31T18:23:18.621Z,73.39
2016-03-31T18:24:18.560Z,73.39
2016-03-31T18:25:18.532Z,73.16
2016-03-31T18:26:18.457Z,73.65
2016-03-31T18:27:18.412Z,73.74
2016-03-31T18:28:18.368Z,73.74
2016-03-31T18:29:18.324Z,74.22
2016-03-31T18:30:18.279Z,73.83
2016-03-31T18:31:18.235Z,73.35
2016-03-31T18:32:18.176Z,73.55
2016-03-31T18:33:18.209Z,74.51
2016-03-31T18:34:18.103Z,74.22
2016-03-31T18:35:18.043Z,74.41
2016-03-31T18:36:17.998Z,74.69
2016-03-31T18:37:17.954Z,75.08
2016-03-31T18:38:17.926Z,74.51
2016-03-31T18:39:17.851Z,74.89
2016-03-31T18:40:17.822Z,74.89
2016-03-31T18:41:17.762Z,74.98
2016-03-31T18:42:17.718Z,74.89
2016-03-31T18:43:17.674Z,75.18
2016-03-31T18:44:17.614Z,74.98
2016-03-31T18:45:17.570Z,74.66
2016-03-31T18:46:17.541Z,75.14
2016-03-31T18:47:17.481Z,75.43
2016-03-31T18:48:17.484Z,75.04
2016-03-31T18:49:17.393Z,75.52
2016-03-31T18:50:17.348Z,76
2016-03-31T18:51:17.289Z,76.57
2016-03-31T18:52:17.261Z,76.77
2016-03-31T18:53:17.216Z,76.57
2016-03-31T18:54:17.171Z,76.57
2016-03-31T18:55:17.112Z,76.29
2016-03-31T18:56:17.052Z,76.29
2016-03-31T18:57:17.008Z,75.9
2016-03-31T18:58:16.964Z,76.57
2016-03-31T18:59:16.935Z,76.57
2016-03-31T19:00:16.876Z,76.29
2016-03-31T19:01:16.816Z,76.48
2016-03-31T19:02:16.788Z,75.9
2016-03-31T19:03:16.618Z,76.39
2016-03-31T19:04:16.699Z,76.29
2016-03-31T19:05:16.640Z,76.19
2016-03-31T19:06:16.595Z,76.19
2016-03-31T19:07:16.551Z,76.1
2016-03-31T19:08:16.501Z,76.39
2016-03-31T19:09:16.441Z,76.39
2016-03-31T19:10:16.397Z,76.64
2016-03-31T19:11:16.368Z,76.54
2016-03-31T19:12:16.308Z,76.44
2016-03-31T19:13:16.249Z,76.06
2016-03-31T19:14:16.219Z,76.06
2016-03-31T19:15:16.176Z,76.54
2016-03-31T19:16:16.132Z,76.73
2016-03-31T19:17:16.087Z,76.82
2016-03-31T19:18:16.043Z,77.11
2016-03-31T19:19:15.983Z,77.78
2016-03-31T19:20:15.939Z,77.5
2016-03-31T19:21:15.910Z,77.88
2016-03-31T19:22:15.866Z,77.31
2016-03-31T19:23:15.790Z,77.78
2016-03-31T19:24:15.732Z,77.97
2016-03-31T19:25:15.687Z,77.4
2016-03-31T19:26:15.659Z,78.07
2016-03-31T19:27:15.598Z,77.97
2016-03-31T19:28:15.554Z,77.69
2016-03-31T19:29:15.510Z,78.07
2016-03-31T19:30:15.451Z,77.78
2016-03-31T19:31:15.406Z,77.88
2016-03-31T19:32:15.362Z,78.07
2016-03-31T19:33:15.334Z,79.13
2016-03-31T19:34:15.273Z,79.32
2016-03-31T19:35:15.230Z,78.99
2016-03-31T19:36:15.170Z,78.42
2016-03-31T19:37:15.125Z,78.22
2016-03-31T19:38:15.097Z,78.42
2016-03-31T19:39:15.037Z,78.99
2016-03-31T19:40:14.993Z,78.22
2016-03-31T19:41:14.964Z,78.89
2016-03-31T19:42:14.888Z,79.08
2016-03-31T19:43:14.829Z,78.89
2016-03-31T19:44:14.801Z,78.89
2016-03-31T19:45:14.741Z,78.7
2016-03-31T19:46:14.697Z,78.89
2016-03-31T19:47:14.652Z,78.42
2016-03-31T19:48:14.593Z,78.22
2016-03-31T19:49:14.549Z,78.51
2016-03-31T19:50:14.520Z,78.8
2016-03-31T19:51:14.304Z,78.89
2016-03-31T19:52:14.432Z,79.28
2016-03-31T19:53:14.356Z,79.08
2016-03-31T19:54:14.312Z,78.8
2016-03-31T19:55:14.284Z,78.99
2016-03-31T19:56:14.224Z,79.28
2016-03-31T19:57:14.289Z,78.8
2016-03-31T19:58:14.120Z,78.89
2016-03-31T19:59:14.123Z,79.62
2016-03-31T20:00:14.048Z,79.43
2016-03-31T20:01:14.206Z,79.43
2016-03-31T20:02:13.943Z,79.62
2016-03-31T20:03:13.992Z,80.29
2016-03-31T20:04:13.886Z,80
2016-03-31T20:05:14.029Z,79.81
2016-03-31T20:06:13.938Z,79.43
2016-03-31T20:07:13.956Z,79.91
2016-03-31T20:08:13.785Z,79.14
2016-03-31T20:09:13.912Z,79.81
2016-03-31T20:10:13.650Z,80.38
2016-03-31T20:11:13.700Z,79.81
2016-03-31T20:12:13.514Z,79.91
2016-03-31T20:13:13.548Z,79.91
2016-03-31T20:14:13.333Z,80
2016-03-31T20:15:13.273Z,80.19
2016-03-31T20:16:13.298Z,79.96
2016-03-31T20:17:13.176Z,80.06
2016-03-31T20:18:13.131Z,79.72
2016-03-31T20:19:13.071Z,80
2016-03-31T20:20:13.027Z,80
2016-03-31T20:21:12.983Z,80.73
2016-03-31T20:22:12.924Z,80.44
2016-03-31T20:23:12.896Z,80.16
2016-03-31T20:24:12.851Z,80.54
2016-03-31T20:25:12.791Z,80.63
2016-03-31T20:26:12.809Z,80.25
2016-03-31T20:27:12.718Z,80.06
2016-03-31T20:28:12.484Z,80.06
2016-03-31T20:29:12.596Z,80.16
2016-03-31T20:30:12.615Z,80.16
2016-03-31T20:31:12.507Z,80.73
2016-03-31T20:32:12.448Z,80.73
2016-03-31T20:33:12.404Z,80.63
2016-03-31T20:34:12.359Z,80.54
2016-03-31T20:35:12.362Z,81.11
2016-03-31T20:36:12.256Z,80.82
2016-03-31T20:37:12.195Z,82.07
2016-03-31T20:38:12.167Z,81.97
2016-03-31T20:39:12.122Z,81.59
2016-03-31T20:40:12.063Z,81.97
2016-03-31T20:41:12.003Z,81.88
2016-03-31T20:42:11.975Z,81.78
2016-03-31T20:43:11.915Z,81.3
2016-03-31T20:44:11.855Z,81.49
2016-03-31T20:45:11.811Z,81.21
2016-03-31T20:46:11.752Z,81.11
2016-03-31T20:47:11.708Z,80.92
2016-03-31T20:48:11.663Z,81.21
2016-03-31T20:49:11.603Z,80.92
2016-03-31T20:50:11.574Z,81.49
2016-03-31T20:51:11.515Z,81.3
2016-03-31T20:52:11.455Z,81.11
2016-03-31T20:53:11.427Z,81.3
2016-03-31T20:54:11.366Z,81.3
2016-03-31T20:55:11.322Z,81.3
2016-03-31T20:56:11.279Z,81.59
2016-03-31T20:57:11.234Z,80.88
2016-03-31T20:58:11.174Z,81.84
2016-03-31T20:59:11.130Z,82.03
2016-03-31T21:00:11.070Z,82.12
2016-03-31T21:01:11.042Z,81.36
2016-03-31T21:02:10.981Z,81.36
2016-03-31T21:03:10.937Z,81.45
2016-03-31T21:04:10.893Z,81.74
2016-03-31T21:05:10.833Z,81.55
2016-03-31T21:06:10.789Z,81.65
2016-03-31T21:07:10.729Z,81.74
2016-03-31T21:08:10.701Z,81.84
2016-03-31T21:09:10.625Z,81.26
2016-03-31T21:10:10.581Z,81.16
2016-03-31T21:11:10.537Z,80.88
2016-03-31T21:12:10.478Z,81.26
2016-03-31T21:13:10.450Z,80.98
2016-03-31T21:14:10.405Z,80.3
2016-03-31T21:15:10.345Z,80.79
2016-03-31T21:16:10.285Z,80.69
2016-03-31T21:17:10.241Z,80.69
2016-03-31T21:18:10.181Z,80.5
2016-03-31T21:19:10.153Z,80.5
2016-03-31T21:20:10.094Z,80.5
2016-03-31T21:21:10.064Z,80.5
2016-03-31T21:22:10.005Z,80.79
2016-03-31T21:23:09.960Z,81.07
2016-03-31T21:24:09.900Z,80.59
2016-03-31T21:25:09.856Z,80.88
2016-03-31T21:26:09.796Z,81.26
2016-03-31T21:27:09.752Z,81.16
2016-03-31T21:28:09.708Z,81.59
2016-03-31T21:29:09.805Z,81.78
2016-03-31T21:30:09.635Z,81.02
2016-03-31T21:31:09.576Z,81.93
2016-03-31T21:32:09.515Z,82.74
2016-03-31T21:33:09.471Z,82.51
2016-03-31T21:34:09.412Z,82.41
2016-03-31T21:35:09.383Z,82.7
2016-03-31T21:36:08.573Z,82.79
2016-03-31T21:37:09.264Z,83.08
2016-03-31T21:38:09.235Z,82.89
2016-03-31T21:39:09.176Z,83.08
2016-03-31T21:40:09.115Z,83.27
2016-03-31T21:41:09.071Z,83.17
2016-03-31T21:42:09.028Z,83.08
2016-03-31T21:43:08.968Z,82.98
2016-03-31T21:44:08.923Z,83.46
2016-03-31T21:45:08.879Z,83.94
2016-03-31T21:46:08.834Z,83.46
2016-03-31T21:47:08.791Z,83.46
2016-03-31T21:48:08.715Z,84.32
2016-03-31T21:49:08.780Z,84.13
2016-03-31T21:50:08.689Z,84.23
2016-03-31T21:51:08.582Z,83.65
2016-03-31T21:52:08.523Z,84.23
2016-03-31T21:53:08.494Z,84.03
2016-03-31T21:54:08.450Z,84.03
2016-03-31T21:55:08.390Z,84.03
2016-03-31T21:56:08.339Z,84.13
2016-03-31T21:57:08.131Z,84.03
2016-03-31T21:58:08.295Z,83.84
2016-03-31T21:59:08.315Z,84.61
2016-03-31T22:00:08.130Z,84.61
2016-03-31T22:01:08.071Z,84.03
2016-03-31T22:02:08.026Z,83.75
2016-03-31T22:03:07.981Z,83.84
2016-03-31T22:04:07.954Z,83.94
2016-03-31T22:05:07.893Z,84.03
2016-03-31T22:06:07.834Z,84.32
2016-03-31T22:07:07.806Z,84.52
2016-03-31T22:08:07.729Z,84.32
2016-03-31T22:09:07.701Z,85.09
2016-03-31T22:10:07.657Z,85.24
2016-03-31T22:11:07.613Z,84.47
2016-03-31T22:12:07.553Z,84.56
2016-03-31T22:13:07.509Z,84.52
2016-03-31T22:14:07.434Z,84.09
2016-03-31T22:15:07.390Z,84.66
2016-03-31T22:16:07.375Z,84.66
2016-03-31T22:17:07.301Z,84.38
2016-03-31T22:18:07.272Z,85.05
2016-03-31T22:19:07.197Z,84.8
2016-03-31T22:20:07.137Z,84.95
2016-03-31T22:21:07.093Z,85.33
2016-03-31T22:22:07.033Z,86.67
2016-03-31T22:23:07.005Z,86.76
2016-03-31T22:24:06.945Z,86.76
2016-03-31T22:25:06.900Z,86.38
2016-03-31T22:26:06.841Z,85.71
2016-03-31T22:27:06.827Z,84.38
2016-03-31T22:28:06.753Z,84.47
2016-03-31T22:29:06.693Z,85.05
2016-03-31T22:30:06.649Z,84.76
2016-03-31T22:31:06.605Z,85.33
2016-03-31T22:32:06.544Z,85.52
2016-03-31T22:33:06.501Z,86.38
2016-03-31T22:34:06.441Z,86.38
2016-03-31T22:35:06.396Z,86.86
2016-03-31T22:36:06.352Z,86.47
2016-03-31T22:37:06.293Z,86.47
2016-03-31T22:38:06.245Z,86.67
2016-03-31T22:39:06.211Z,86.57
2016-03-31T22:40:06.130Z,85.81
2016-03-31T22:41:06.080Z,85.33
2016-03-31T22:42:06.014Z,85.52
2016-03-31T22:43:05.965Z,85.9
2016-03-31T22:44:05.904Z,85.33
2016-03-31T22:45:05.857Z,85.19
2016-03-31T22:46:05.811Z,85.48
2016-03-31T22:47:05.764Z,85.52
2016-03-31T22:48:05.719Z,85.67
2016-03-31T22:49:05.658Z,85.38
2016-03-31T22:50:05.614Z,85.48
2016-03-31T22:51:05.568Z,85.1
2016-03-31T22:52:05.523Z,85
2016-03-31T22:53:05.463Z,84.91
2016-03-31T22:54:05.402Z,85
2016-03-31T22:55:05.358Z,85.29
2016-03-31T22:56:05.298Z,85.58
2016-03-31T22:57:05.254Z,85.96
2016-03-31T22:58:05.225Z,85.86
2016-03-31T22:59:05.164Z,85.67
2016-03-31T23:00:04.356Z,86.05
2016-03-31T23:01:05.044Z,85.86
2016-03-31T23:02:05.001Z,86.24
2016-03-31T23:03:04.941Z,85.48
2016-03-31T23:04:04.928Z,85.48
2016-03-31T23:05:04.837Z,85.19
2016-03-31T23:06:04.793Z,85
2016-03-31T23:07:04.749Z,85
2016-03-31T23:08:04.719Z,84.72
2016-03-31T23:09:04.661Z,84.81
2016-03-31T23:10:04.600Z,85
2016-03-31T23:11:04.541Z,85
2016-03-31T23:12:04.497Z,85.1
2016-03-31T23:13:04.453Z,84.81
2016-03-31T23:14:04.393Z,85.67
2016-03-31T23:15:04.364Z,85.58
2016-03-31T23:16:04.304Z,85.48
2016-03-31T23:17:04.244Z,85.29
2016-03-31T23:18:04.201Z,85.96
2016-03-31T23:19:04.141Z,84.96
2016-03-31T23:20:04.081Z,84.96
2016-03-31T23:21:04.052Z,84.77
2016-03-31T23:22:03.992Z,84.86
2016-03-31T23:23:03.948Z,85.25
2016-03-31T23:24:03.904Z,85.77
2016-03-31T23:25:03.860Z,85.25
2016-03-31T23:26:03.800Z,85.53
2016-03-31T23:27:03.756Z,85.53
2016-03-31T23:28:03.696Z,85.63
2016-03-31T23:29:03.636Z,86.58
2016-03-31T23:30:03.576Z,86.49
2016-03-31T23:31:03.547Z,86.39
2016-03-31T23:32:03.489Z,86.39
2016-03-31T23:33:03.444Z,86.68
2016-03-31T23:34:03.384Z,85.96
2016-03-31T23:35:03.325Z,85.53
2016-03-31T23:36:03.295Z,85.34
2016-03-31T23:37:03.236Z,85.34
2016-03-31T23:38:03.175Z,85.63
2016-03-31T23:39:03.133Z,85.72
2016-03-31T23:40:03.088Z,86.49
2016-03-31T23:41:03.043Z,86.96
2016-03-31T23:42:02.983Z,86.96
2016-03-31T23:43:02.924Z,87.44
2016-03-31T23:44:02.879Z,87.25
2016-03-31T23:45:02.851Z,87.54
2016-03-31T23:46:02.776Z,87.35
2016-03-31T23:47:02.732Z,86.49
2016-03-31T23:48:02.671Z,85.44
2016-03-31T23:49:02.627Z,85.15
2016-03-31T23:50:02.568Z,85.15
2016-03-31T23:51:02.523Z,85.05
2016-03-31T23:52:02.479Z,84.96
2016-03-31T23:53:02.420Z,85.15
2016-03-31T23:54:02.360Z,85.15
2016-03-31T23:55:02.315Z,85.44
2016-03-31T23:56:02.270Z,85.34
2016-03-31T23:57:02.212Z,85.82
2016-03-31T23:58:02.167Z,85.72
2016-03-31T23:59:02.106Z,85.72
